sensor_id;sensor_type;location;lat;lon;timestamp;pressure;altitude;pressure_sealevel;temperature;humidity
70338;BME280;57757;53.198;19.646;2023-05-19T00:00:18;101408.94;;;11.31;44.83
70338;BME280;57757;53.198;19.646;2023-05-19T00:03:06;101406.87;;;11.29;44.75
70338;BME280;57757;53.198;19.646;2023-05-19T00:05:38;101405.13;;;11.29;44.90
70338;BME280;57757;53.198;19.646;2023-05-19T00:08:16;101406.35;;;11.30;44.94
70338;BME280;57757;53.198;19.646;2023-05-19T00:10:46;101405.64;;;11.30;44.78
70338;BME280;57757;53.198;19.646;2023-05-19T00:13:13;101399.73;;;11.30;45.09
70338;BME280;57757;53.198;19.646;2023-05-19T00:15:41;101397.79;;;11.31;45.15
70338;BME280;57757;53.198;19.646;2023-05-19T00:18:09;101401.81;;;11.30;45.09
70338;BME280;57757;53.198;19.646;2023-05-19T00:20:41;101404.43;;;11.28;45.09
70338;BME280;57757;53.198;19.646;2023-05-19T00:23:10;101404.11;;;11.26;45.17
70338;BME280;57757;53.198;19.646;2023-05-19T00:25:37;101403.93;;;11.26;45.17
70338;BME280;57757;53.198;19.646;2023-05-19T00:28:05;101404.46;;;11.26;45.12
70338;BME280;57757;53.198;19.646;2023-05-19T00:30:32;101403.92;;;11.27;45.22
70338;BME280;57757;53.198;19.646;2023-05-19T00:33:00;101402.38;;;11.27;45.27
70338;BME280;57757;53.198;19.646;2023-05-19T00:35:28;101403.05;;;11.26;45.23
70338;BME280;57757;53.198;19.646;2023-05-19T00:37:56;101400.11;;;11.26;45.35
70338;BME280;57757;53.198;19.646;2023-05-19T00:40:24;101399.23;;;11.26;45.12
70338;BME280;57757;53.198;19.646;2023-05-19T00:42:52;101402.20;;;11.25;45.23
70338;BME280;57757;53.198;19.646;2023-05-19T00:45:20;101403.58;;;11.24;45.24
70338;BME280;57757;53.198;19.646;2023-05-19T00:47:47;101400.80;;;11.24;45.35
70338;BME280;57757;53.198;19.646;2023-05-19T00:50:17;101403.59;;;11.24;45.31
70338;BME280;57757;53.198;19.646;2023-05-19T00:52:45;101402.72;;;11.25;45.20
70338;BME280;57757;53.198;19.646;2023-05-19T00:55:13;101403.06;;;11.25;45.24
70338;BME280;57757;53.198;19.646;2023-05-19T00:57:42;101401.67;;;11.25;45.24
70338;BME280;57757;53.198;19.646;2023-05-19T01:00:10;101399.41;;;11.23;45.48
70338;BME280;57757;53.198;19.646;2023-05-19T01:02:39;101397.70;;;11.22;45.49
70338;BME280;57757;53.198;19.646;2023-05-19T01:05:07;101398.39;;;11.21;45.50
70338;BME280;57757;53.198;19.646;2023-05-19T01:07:36;101396.15;;;11.18;45.57
70338;BME280;57757;53.198;19.646;2023-05-19T01:10:04;101396.15;;;11.16;45.58
70338;BME280;57757;53.198;19.646;2023-05-19T01:12:35;101392.52;;;11.15;45.64
70338;BME280;57757;53.198;19.646;2023-05-19T01:15:03;101393.22;;;11.14;45.58
70338;BME280;57757;53.198;19.646;2023-05-19T01:20:21;101391.48;;;11.12;45.79
70338;BME280;57757;53.198;19.646;2023-05-19T01:31:41;101400.23;;;11.06;46.04
70338;BME280;57757;53.198;19.646;2023-05-19T01:34:11;101397.27;;;11.05;46.01
70338;BME280;57757;53.198;19.646;2023-05-19T01:36:40;101400.25;;;11.03;46.10
70338;BME280;57757;53.198;19.646;2023-05-19T01:39:12;101401.47;;;11.03;46.20
70338;BME280;57757;53.198;19.646;2023-05-19T01:41:40;101401.81;;;11.03;46.14
70338;BME280;57757;53.198;19.646;2023-05-19T01:44:09;101398.85;;;11.03;46.23
70338;BME280;57757;53.198;19.646;2023-05-19T01:46:37;101399.21;;;11.03;46.13
70338;BME280;57757;53.198;19.646;2023-05-19T01:49:05;101398.16;;;11.02;46.24
70338;BME280;57757;53.198;19.646;2023-05-19T01:51:34;101400.26;;;11.01;46.25
70338;BME280;57757;53.198;19.646;2023-05-19T01:54:02;101399.73;;;11.00;46.23
70338;BME280;57757;53.198;19.646;2023-05-19T01:56:42;101402.16;;;11.00;46.40
70338;BME280;57757;53.198;19.646;2023-05-19T01:59:34;101400.45;;;10.98;46.38
70338;BME280;57757;53.198;19.646;2023-05-19T02:02:23;101396.61;;;10.97;46.53
70338;BME280;57757;53.198;19.646;2023-05-19T02:04:58;101396.79;;;10.97;46.55
70338;BME280;57757;53.198;19.646;2023-05-19T02:07:41;101396.80;;;10.96;46.57
70338;BME280;57757;53.198;19.646;2023-05-19T02:10:19;101397.17;;;10.95;46.69
70338;BME280;57757;53.198;19.646;2023-05-19T02:12:53;101392.81;;;10.95;46.61
70338;BME280;57757;53.198;19.646;2023-05-19T02:15:29;101391.42;;;10.94;46.65
70338;BME280;57757;53.198;19.646;2023-05-19T02:18:02;101392.46;;;10.93;46.80
70338;BME280;57757;53.198;19.646;2023-05-19T02:20:30;101395.09;;;10.92;46.76
70338;BME280;57757;53.198;19.646;2023-05-19T02:22:59;101392.30;;;10.92;46.80
70338;BME280;57757;53.198;19.646;2023-05-19T02:25:26;101394.58;;;10.91;46.80
70338;BME280;57757;53.198;19.646;2023-05-19T02:27:54;101395.63;;;10.90;46.83
70338;BME280;57757;53.198;19.646;2023-05-19T02:30:22;101395.27;;;10.89;46.90
70338;BME280;57757;53.198;19.646;2023-05-19T02:32:49;101396.33;;;10.89;46.93
70338;BME280;57757;53.198;19.646;2023-05-19T02:35:17;101395.98;;;10.87;46.94
70338;BME280;57757;53.198;19.646;2023-05-19T02:37:45;101393.40;;;10.84;47.02
70338;BME280;57757;53.198;19.646;2023-05-19T02:40:12;101395.14;;;10.83;47.10
70338;BME280;57757;53.198;19.646;2023-05-19T02:42:40;101393.40;;;10.83;47.19
70338;BME280;57757;53.198;19.646;2023-05-19T02:45:08;101392.19;;;10.82;47.17
70338;BME280;57757;53.198;19.646;2023-05-19T02:47:35;101393.39;;;10.82;47.21
70338;BME280;57757;53.198;19.646;2023-05-19T02:50:05;101392.35;;;10.82;47.35
70338;BME280;57757;53.198;19.646;2023-05-19T02:52:33;101392.90;;;10.81;47.37
70338;BME280;57757;53.198;19.646;2023-05-19T02:55:01;101388.19;;;10.81;47.47
70338;BME280;57757;53.198;19.646;2023-05-19T02:57:29;101387.64;;;10.81;47.64
70338;BME280;57757;53.198;19.646;2023-05-19T02:59:58;101388.01;;;10.81;47.54
70338;BME280;57757;53.198;19.646;2023-05-19T03:02:25;101389.06;;;10.81;47.57
70338;BME280;57757;53.198;19.646;2023-05-19T03:04:53;101390.64;;;10.79;47.66
70338;BME280;57757;53.198;19.646;2023-05-19T03:07:21;101394.12;;;10.78;47.61
70338;BME280;57757;53.198;19.646;2023-05-19T03:09:52;101395.34;;;10.78;47.83
70338;BME280;57757;53.198;19.646;2023-05-19T03:12:20;101398.64;;;10.78;47.72
70338;BME280;57757;53.198;19.646;2023-05-19T03:14:48;101397.94;;;10.78;47.77
70338;BME280;57757;53.198;19.646;2023-05-19T03:17:15;101398.30;;;10.78;47.84
70338;BME280;57757;53.198;19.646;2023-05-19T03:19:43;101398.98;;;10.77;47.79
70338;BME280;57757;53.198;19.646;2023-05-19T03:22:11;101397.96;;;10.77;47.88
70338;BME280;57757;53.198;19.646;2023-05-19T03:24:38;101399.17;;;10.76;48.13
70338;BME280;57757;53.198;19.646;2023-05-19T03:27:06;101396.23;;;10.76;48.05
70338;BME280;57757;53.198;19.646;2023-05-19T03:29:34;101399.18;;;10.75;48.05
70338;BME280;57757;53.198;19.646;2023-05-19T03:32:01;101395.17;;;10.76;48.13
70338;BME280;57757;53.198;19.646;2023-05-19T03:34:29;101400.21;;;10.78;48.14
70338;BME280;57757;53.198;19.646;2023-05-19T03:36:59;101397.60;;;10.80;48.33
70338;BME280;57757;53.198;19.646;2023-05-19T03:39:26;101399.14;;;10.82;48.35
70338;BME280;57757;53.198;19.646;2023-05-19T03:41:54;101397.73;;;10.85;48.35
70338;BME280;57757;53.198;19.646;2023-05-19T03:44:22;101396.33;;;10.88;48.43
70338;BME280;57757;53.198;19.646;2023-05-19T03:46:50;101395.10;;;10.91;48.34
70338;BME280;57757;53.198;19.646;2023-05-19T03:49:18;101397.02;;;10.91;48.48
70338;BME280;57757;53.198;19.646;2023-05-19T03:51:46;101398.55;;;10.93;48.53
70338;BME280;57757;53.198;19.646;2023-05-19T03:54:13;101402.03;;;10.93;48.48
70338;BME280;57757;53.198;19.646;2023-05-19T03:56:42;101399.06;;;10.96;48.66
70338;BME280;57757;53.198;19.646;2023-05-19T03:59:10;101399.73;;;11.00;48.80
70338;BME280;57757;53.198;19.646;2023-05-19T04:01:39;101399.02;;;11.03;48.77
70338;BME280;57757;53.198;19.646;2023-05-19T04:04:06;101399.36;;;11.06;48.78
70338;BME280;57757;53.198;19.646;2023-05-19T04:06:34;101400.23;;;11.06;48.91
70338;BME280;57757;53.198;19.646;2023-05-19T04:09:12;101398.67;;;11.07;48.94
70338;BME280;57757;53.198;19.646;2023-05-19T04:11:41;101398.65;;;11.09;49.22
70338;BME280;57757;53.198;19.646;2023-05-19T04:14:09;101402.29;;;11.12;49.28
70338;BME280;57757;53.198;19.646;2023-05-19T04:16:36;101399.98;;;11.17;49.18
70338;BME280;57757;53.198;19.646;2023-05-19T04:19:04;101400.30;;;11.20;49.28
70338;BME280;57757;53.198;19.646;2023-05-19T04:21:32;101400.13;;;11.22;49.32
70338;BME280;57757;53.198;19.646;2023-05-19T04:24:00;101398.88;;;11.24;49.28
70338;BME280;57757;53.198;19.646;2023-05-19T04:26:28;101396.27;;;11.27;49.40
70338;BME280;57757;53.198;19.646;2023-05-19T04:28:57;101393.78;;;11.31;49.54
70338;BME280;57757;53.198;19.646;2023-05-19T04:31:27;101398.46;;;11.36;49.57
70338;BME280;57757;53.198;19.646;2023-05-19T04:33:56;101399.48;;;11.40;49.60
70338;BME280;57757;53.198;19.646;2023-05-19T04:36:24;101403.80;;;11.44;49.87
70338;BME280;57757;53.198;19.646;2023-05-19T04:38:52;101405.51;;;11.48;49.82
70338;BME280;57757;53.198;19.646;2023-05-19T04:41:21;101408.79;;;11.50;49.73
70338;BME280;57757;53.198;19.646;2023-05-19T04:43:49;101403.39;;;11.50;49.85
70338;BME280;57757;53.198;19.646;2023-05-19T04:46:16;101404.27;;;11.50;49.88
70338;BME280;57757;53.198;19.646;2023-05-19T04:48:44;101403.57;;;11.52;49.97
70338;BME280;57757;53.198;19.646;2023-05-19T04:51:12;101407.52;;;11.56;50.05
70338;BME280;57757;53.198;19.646;2023-05-19T04:53:41;101410.82;;;11.59;50.03
70338;BME280;57757;53.198;19.646;2023-05-19T04:56:09;101412.70;;;11.62;50.23
70338;BME280;57757;53.198;19.646;2023-05-19T04:58:40;101411.80;;;11.68;50.21
70338;BME280;57757;53.198;19.646;2023-05-19T05:01:08;101416.14;;;11.73;50.41
70338;BME280;57757;53.198;19.646;2023-05-19T05:03:36;101416.59;;;11.81;50.37
70338;BME280;57757;53.198;19.646;2023-05-19T05:06:03;101411.48;;;11.87;50.28
70338;BME280;57757;53.198;19.646;2023-05-19T05:08:31;101413.50;;;11.94;50.21
70338;BME280;57757;53.198;19.646;2023-05-19T05:10:59;101413.26;;;12.02;50.18
70338;BME280;57757;53.198;19.646;2023-05-19T05:13:28;101413.02;;;12.08;50.24
70338;BME280;57757;53.198;19.646;2023-05-19T05:15:56;101415.58;;;12.13;50.14
70338;BME280;57757;53.198;19.646;2023-05-19T05:18:25;101412.70;;;12.21;50.21
70338;BME280;57757;53.198;19.646;2023-05-19T05:20:53;101412.79;;;12.31;50.19
70338;BME280;57757;53.198;19.646;2023-05-19T05:23:21;101412.85;;;12.39;50.01
70338;BME280;57757;53.198;19.646;2023-05-19T05:25:49;101417.13;;;12.47;50.01
70338;BME280;57757;53.198;19.646;2023-05-19T05:28:16;101415.80;;;12.55;50.17
70338;BME280;57757;53.198;19.646;2023-05-19T05:30:45;101413.23;;;12.65;50.14
70338;BME280;57757;53.198;19.646;2023-05-19T05:33:12;101413.67;;;12.72;50.07
70338;BME280;57757;53.198;19.646;2023-05-19T05:35:41;101414.80;;;12.80;49.97
70338;BME280;57757;53.198;19.646;2023-05-19T05:38:08;101414.20;;;12.85;49.88
70338;BME280;57757;53.198;19.646;2023-05-19T05:40:38;101417.77;;;12.93;49.90
70338;BME280;57757;53.198;19.646;2023-05-19T05:43:07;101425.88;;;13.01;49.93
70338;BME280;57757;53.198;19.646;2023-05-19T05:45:34;101424.91;;;13.07;49.71
70338;BME280;57757;53.198;19.646;2023-05-19T05:48:02;101426.98;;;13.10;49.70
70338;BME280;57757;53.198;19.646;2023-05-19T05:50:31;101428.02;;;13.12;49.68
70338;BME280;57757;53.198;19.646;2023-05-19T05:53:00;101429.86;;;13.17;49.67
70338;BME280;57757;53.198;19.646;2023-05-19T05:55:29;101428.15;;;13.26;49.86
70338;BME280;57757;53.198;19.646;2023-05-19T05:57:58;101428.70;;;13.47;50.02
70338;BME280;57757;53.198;19.646;2023-05-19T06:00:27;101425.82;;;13.63;49.51
70338;BME280;57757;53.198;19.646;2023-05-19T06:02:56;101426.16;;;13.74;49.55
70338;BME280;57757;53.198;19.646;2023-05-19T06:05:25;101424.75;;;13.85;49.48
70338;BME280;57757;53.198;19.646;2023-05-19T06:07:53;101424.13;;;13.91;49.40
70338;BME280;57757;53.198;19.646;2023-05-19T06:10:22;101424.92;;;13.95;49.36
70338;BME280;57757;53.198;19.646;2023-05-19T06:12:49;101427.52;;;13.98;49.31
70338;BME280;57757;53.198;19.646;2023-05-19T06:15:17;101425.35;;;14.01;49.14
70338;BME280;57757;53.198;19.646;2023-05-19T06:17:44;101423.27;;;14.00;49.04
70338;BME280;57757;53.198;19.646;2023-05-19T06:20:13;101426.23;;;14.01;48.95
70338;BME280;57757;53.198;19.646;2023-05-19T06:22:43;101425.34;;;14.02;48.95
70338;BME280;57757;53.198;19.646;2023-05-19T06:25:10;101428.44;;;14.05;49.00
70338;BME280;57757;53.198;19.646;2023-05-19T06:27:39;101429.03;;;14.10;49.06
70338;BME280;57757;53.198;19.646;2023-05-19T06:30:07;101429.64;;;14.15;48.92
70338;BME280;57757;53.198;19.646;2023-05-19T06:32:35;101429.32;;;14.23;49.03
70338;BME280;57757;53.198;19.646;2023-05-19T06:35:03;101430.23;;;14.31;48.92
70338;BME280;57757;53.198;19.646;2023-05-19T06:37:31;101430.63;;;14.38;48.97
70338;BME280;57757;53.198;19.646;2023-05-19T06:39:59;101434.31;;;14.47;49.07
70338;BME280;57757;53.198;19.646;2023-05-19T06:42:27;101434.50;;;14.55;49.11
70338;BME280;57757;53.198;19.646;2023-05-19T06:44:54;101437.30;;;14.64;49.00
70338;BME280;57757;53.198;19.646;2023-05-19T06:47:22;101435.02;;;14.72;48.88
70338;BME280;57757;53.198;19.646;2023-05-19T06:49:50;101433.00;;;14.76;48.85
70338;BME280;57757;53.198;19.646;2023-05-19T06:52:23;101435.89;;;14.81;48.83
70338;BME280;57757;53.198;19.646;2023-05-19T06:54:50;101436.00;;;14.83;48.62
70338;BME280;57757;53.198;19.646;2023-05-19T06:57:18;101437.91;;;14.84;48.38
70338;BME280;57757;53.198;19.646;2023-05-19T06:59:48;101438.90;;;14.88;48.72
70338;BME280;57757;53.198;19.646;2023-05-19T07:02:16;101436.89;;;14.92;48.74
70338;BME280;57757;53.198;19.646;2023-05-19T07:04:44;101436.41;;;14.98;48.85
70338;BME280;57757;53.198;19.646;2023-05-19T07:07:12;101438.91;;;15.03;48.48
70338;BME280;57757;53.198;19.646;2023-05-19T07:09:40;101437.75;;;15.01;48.44
70338;BME280;57757;53.198;19.646;2023-05-19T07:12:08;101435.94;;;15.04;48.39
70338;BME280;57757;53.198;19.646;2023-05-19T07:14:36;101439.30;;;15.10;48.40
70338;BME280;57757;53.198;19.646;2023-05-19T07:17:06;101444.94;;;15.16;48.48
70338;BME280;57757;53.198;19.646;2023-05-19T07:19:34;101445.47;;;15.24;48.41
70338;BME280;57757;53.198;19.646;2023-05-19T07:22:02;101447.69;;;15.34;48.34
70338;BME280;57757;53.198;19.646;2023-05-19T07:24:30;101450.45;;;15.43;48.43
70338;BME280;57757;53.198;19.646;2023-05-19T07:26:57;101445.41;;;15.50;48.43
70338;BME280;57757;53.198;19.646;2023-05-19T07:29:25;101449.66;;;15.55;48.40
70338;BME280;57757;53.198;19.646;2023-05-19T07:31:53;101450.27;;;15.59;48.21
70338;BME280;57757;53.198;19.646;2023-05-19T07:34:25;101448.57;;;15.65;48.33
70338;BME280;57757;53.198;19.646;2023-05-19T07:36:52;101448.05;;;15.70;48.27
70338;BME280;57757;53.198;19.646;2023-05-19T07:39:20;101446.53;;;15.75;48.23
70338;BME280;57757;53.198;19.646;2023-05-19T07:41:49;101449.92;;;15.81;48.07
70338;BME280;57757;53.198;19.646;2023-05-19T07:44:20;101450.23;;;15.89;48.25
70338;BME280;57757;53.198;19.646;2023-05-19T07:46:49;101451.37;;;16.00;48.41
70338;BME280;57757;53.198;19.646;2023-05-19T07:49:18;101445.95;;;16.06;48.20
70338;BME280;57757;53.198;19.646;2023-05-19T07:51:46;101449.99;;;16.12;48.24
70338;BME280;57757;53.198;19.646;2023-05-19T07:54:14;101449.66;;;16.18;48.04
70338;BME280;57757;53.198;19.646;2023-05-19T07:56:42;101447.28;;;16.22;48.10
70338;BME280;57757;53.198;19.646;2023-05-19T07:59:10;101448.49;;;16.29;48.10
70338;BME280;57757;53.198;19.646;2023-05-19T08:01:38;101446.95;;;16.33;48.08
70338;BME280;57757;53.198;19.646;2023-05-19T08:04:14;101445.55;;;16.33;47.84
70338;BME280;57757;53.198;19.646;2023-05-19T08:06:43;101446.80;;;16.33;47.92
70338;BME280;57757;53.198;19.646;2023-05-19T08:09:11;101442.30;;;16.30;47.90
70338;BME280;57757;53.198;19.646;2023-05-19T08:11:38;101441.99;;;16.29;48.09
70338;BME280;57757;53.198;19.646;2023-05-19T08:14:06;101439.70;;;16.29;48.20
70338;BME280;57757;53.198;19.646;2023-05-19T08:16:33;101436.77;;;16.28;48.05
70338;BME280;57757;53.198;19.646;2023-05-19T08:19:01;101431.80;;;16.29;48.48
70338;BME280;57757;53.198;19.646;2023-05-19T08:21:31;101432.98;;;16.38;48.42
70338;BME280;57757;53.198;19.646;2023-05-19T08:24:02;101429.05;;;16.40;48.17
70338;BME280;57757;53.198;19.646;2023-05-19T08:26:30;101431.39;;;16.38;47.92
70338;BME280;57757;53.198;19.646;2023-05-19T08:28:58;101429.14;;;16.36;48.06
70338;BME280;57757;53.198;19.646;2023-05-19T08:31:25;101423.64;;;16.39;48.22
70338;BME280;57757;53.198;19.646;2023-05-19T08:33:53;101428.30;;;16.42;48.25
70338;BME280;57757;53.198;19.646;2023-05-19T08:36:20;101423.98;;;16.45;48.48
70338;BME280;57757;53.198;19.646;2023-05-19T08:38:48;101425.35;;;16.52;48.51
70338;BME280;57757;53.198;19.646;2023-05-19T08:41:16;101425.09;;;16.63;48.63
70338;BME280;57757;53.198;19.646;2023-05-19T08:43:44;101430.16;;;16.69;48.19
70338;BME280;57757;53.198;19.646;2023-05-19T08:46:12;101433.02;;;16.74;48.24
70338;BME280;57757;53.198;19.646;2023-05-19T08:48:43;101431.60;;;16.87;48.60
70338;BME280;57757;53.198;19.646;2023-05-19T08:51:19;101428.02;;;17.01;48.65
70338;BME280;57757;53.198;19.646;2023-05-19T08:53:50;101432.77;;;17.12;48.46
70338;BME280;57757;53.198;19.646;2023-05-19T08:56:22;101433.52;;;17.16;48.55
70338;BME280;57757;53.198;19.646;2023-05-19T08:58:51;101430.61;;;17.19;48.46
70338;BME280;57757;53.198;19.646;2023-05-19T09:01:21;101433.23;;;17.25;48.53
70338;BME280;57757;53.198;19.646;2023-05-19T09:03:50;101428.82;;;17.31;48.58
70338;BME280;57757;53.198;19.646;2023-05-19T09:06:18;101425.65;;;17.37;48.39
70338;BME280;57757;53.198;19.646;2023-05-19T09:08:46;101424.05;;;17.37;48.55
70338;BME280;57757;53.198;19.646;2023-05-19T09:11:14;101426.19;;;17.42;48.54
70338;BME280;57757;53.198;19.646;2023-05-19T09:13:42;101422.05;;;17.44;48.79
70338;BME280;57757;53.198;19.646;2023-05-19T09:16:10;101420.55;;;17.53;48.86
70338;BME280;57757;53.198;19.646;2023-05-19T09:18:39;101419.73;;;17.56;48.54
70338;BME280;57757;53.198;19.646;2023-05-19T09:21:09;101417.08;;;17.58;48.63
70338;BME280;57757;53.198;19.646;2023-05-19T09:23:38;101415.52;;;17.68;48.82
70338;BME280;57757;53.198;19.646;2023-05-19T09:26:06;101408.25;;;17.80;48.59
70338;BME280;57757;53.198;19.646;2023-05-19T09:28:35;101406.05;;;17.88;48.42
70338;BME280;57757;53.198;19.646;2023-05-19T09:31:10;101405.34;;;17.88;48.22
70338;BME280;57757;53.198;19.646;2023-05-19T09:33:39;101404.28;;;17.88;48.09
70338;BME280;57757;53.198;19.646;2023-05-19T09:36:15;101401.91;;;17.86;48.01
70338;BME280;57757;53.198;19.646;2023-05-19T09:38:46;101398.96;;;17.89;48.41
70338;BME280;57757;53.198;19.646;2023-05-19T09:41:14;101398.06;;;17.94;48.41
70338;BME280;57757;53.198;19.646;2023-05-19T09:43:53;101396.81;;;17.95;48.42
70338;BME280;57757;53.198;19.646;2023-05-19T09:46:24;101397.35;;;18.00;48.29
70338;BME280;57757;53.198;19.646;2023-05-19T09:48:58;101391.06;;;17.98;48.09
70338;BME280;57757;53.198;19.646;2023-05-19T09:51:26;101387.46;;;17.96;48.10
70338;BME280;57757;53.198;19.646;2023-05-19T09:53:57;101388.91;;;17.95;48.07
70338;BME280;57757;53.198;19.646;2023-05-19T09:56:30;101381.05;;;17.93;48.13
70338;BME280;57757;53.198;19.646;2023-05-19T09:59:01;101379.30;;;17.93;48.33
70338;BME280;57757;53.198;19.646;2023-05-19T10:01:30;101371.80;;;17.96;48.33
70338;BME280;57757;53.198;19.646;2023-05-19T10:04:00;101373.22;;;17.95;48.31
70338;BME280;57757;53.198;19.646;2023-05-19T10:06:32;101370.91;;;17.96;48.58
70338;BME280;57757;53.198;19.646;2023-05-19T10:09:01;101369.27;;;18.03;48.62
70338;BME280;57757;53.198;19.646;2023-05-19T10:11:30;101375.15;;;18.01;48.19
70338;BME280;57757;53.198;19.646;2023-05-19T10:13:58;101378.85;;;17.91;48.13
70338;BME280;57757;53.198;19.646;2023-05-19T10:16:26;101378.36;;;17.80;48.07
70338;BME280;57757;53.198;19.646;2023-05-19T10:18:58;101383.95;;;17.70;48.13
70338;BME280;57757;53.198;19.646;2023-05-19T10:21:27;101388.35;;;17.59;48.10
70338;BME280;57757;53.198;19.646;2023-05-19T10:23:55;101394.72;;;17.47;47.87
70338;BME280;57757;53.198;19.646;2023-05-19T10:26:24;101393.27;;;17.32;47.85
70338;BME280;57757;53.198;19.646;2023-05-19T10:28:52;101396.95;;;17.22;48.09
70338;BME280;57757;53.198;19.646;2023-05-19T10:31:22;101400.14;;;17.10;47.84
70338;BME280;57757;53.198;19.646;2023-05-19T10:34:21;101398.92;;;16.98;48.04
70338;BME280;57757;53.198;19.646;2023-05-19T10:37:14;101399.66;;;16.91;48.45
70338;BME280;57757;53.198;19.646;2023-05-19T10:39:41;101398.46;;;17.07;48.67
70338;BME280;57757;53.198;19.646;2023-05-19T10:45:21;101378.02;;;17.52;48.43
70338;BME280;57757;53.198;19.646;2023-05-19T10:47:51;101378.41;;;17.68;48.11
70338;BME280;57757;53.198;19.646;2023-05-19T10:50:21;101380.64;;;17.80;47.97
70338;BME280;57757;53.198;19.646;2023-05-19T10:52:52;101380.90;;;17.88;47.82
70338;BME280;57757;53.198;19.646;2023-05-19T10:55:44;101379.48;;;17.98;47.60
70338;BME280;57757;53.198;19.646;2023-05-19T10:58:14;101378.42;;;17.97;47.40
70338;BME280;57757;53.198;19.646;2023-05-19T11:00:42;101376.39;;;18.05;47.42
70338;BME280;57757;53.198;19.646;2023-05-19T11:03:16;101373.08;;;18.09;46.99
70338;BME280;57757;53.198;19.646;2023-05-19T11:05:51;101373.40;;;18.00;46.74
70338;BME280;57757;53.198;19.646;2023-05-19T11:08:31;101376.70;;;17.87;46.76
70338;BME280;57757;53.198;19.646;2023-05-19T11:11:15;101378.57;;;17.68;46.69
70338;BME280;57757;53.198;19.646;2023-05-19T11:13:52;101378.31;;;17.54;46.80
70338;BME280;57757;53.198;19.646;2023-05-19T11:16:30;101378.27;;;17.45;46.92
70338;BME280;57757;53.198;19.646;2023-05-19T11:18:58;101382.36;;;17.38;47.03
70338;BME280;57757;53.198;19.646;2023-05-19T11:21:49;101374.74;;;17.34;47.07
70338;BME280;57757;53.198;19.646;2023-05-19T11:27:19;101379.30;;;17.29;47.18
70338;BME280;57757;53.198;19.646;2023-05-19T11:29:55;101378.65;;;17.28;47.34
70338;BME280;57757;53.198;19.646;2023-05-19T11:32:31;101377.39;;;17.39;47.94
70338;BME280;57757;53.198;19.646;2023-05-19T11:35:06;101383.31;;;17.58;47.47
70338;BME280;57757;53.198;19.646;2023-05-19T11:37:34;101386.70;;;17.56;47.12
70338;BME280;57757;53.198;19.646;2023-05-19T11:40:03;101391.54;;;17.48;46.99
70338;BME280;57757;53.198;19.646;2023-05-19T11:42:36;101396.69;;;17.35;46.73
70338;BME280;57757;53.198;19.646;2023-05-19T11:45:05;101399.75;;;17.22;46.80
70338;BME280;57757;53.198;19.646;2023-05-19T11:47:33;101398.55;;;17.10;46.97
70338;BME280;57757;53.198;19.646;2023-05-19T11:50:20;101395.14;;;17.01;46.97
70338;BME280;57757;53.198;19.646;2023-05-19T11:52:50;101391.01;;;16.92;47.06
70338;BME280;57757;53.198;19.646;2023-05-19T11:55:20;101383.67;;;16.86;47.18
70338;BME280;57757;53.198;19.646;2023-05-19T12:00:33;101374.27;;;16.83;47.53
70338;BME280;57757;53.198;19.646;2023-05-19T12:03:05;101372.65;;;16.83;47.41
70338;BME280;57757;53.198;19.646;2023-05-19T12:05:44;101376.31;;;16.85;47.59
70338;BME280;57757;53.198;19.646;2023-05-19T12:08:16;101370.93;;;16.88;47.47
70338;BME280;57757;53.198;19.646;2023-05-19T12:10:48;101361.33;;;16.92;47.69
70338;BME280;57757;53.198;19.646;2023-05-19T12:13:19;101359.64;;;17.01;47.71
70338;BME280;57757;53.198;19.646;2023-05-19T12:15:50;101363.88;;;17.11;47.80
70338;BME280;57757;53.198;19.646;2023-05-19T12:18:20;101362.70;;;17.21;47.93
70338;BME280;57757;53.198;19.646;2023-05-19T12:20:48;101358.14;;;17.37;48.37
70338;BME280;57757;53.198;19.646;2023-05-19T12:23:16;101363.50;;;17.60;48.42
70338;BME280;57757;53.198;19.646;2023-05-19T12:25:44;101372.04;;;17.79;48.04
70338;BME280;57757;53.198;19.646;2023-05-19T12:28:14;101376.09;;;17.84;47.61
70338;BME280;57757;53.198;19.646;2023-05-19T12:30:46;101379.95;;;17.84;47.51
70338;BME280;57757;53.198;19.646;2023-05-19T12:33:14;101379.40;;;17.75;47.11
70338;BME280;57757;53.198;19.646;2023-05-19T12:35:43;101380.97;;;17.59;47.04
70338;BME280;57757;53.198;19.646;2023-05-19T12:38:13;101387.98;;;17.43;47.10
70338;BME280;57757;53.198;19.646;2023-05-19T12:40:42;101387.70;;;17.30;47.21
70338;BME280;57757;53.198;19.646;2023-05-19T12:43:26;101388.57;;;17.14;47.20
70338;BME280;57757;53.198;19.646;2023-05-19T12:45:54;101396.05;;;17.00;47.40
70338;BME280;57757;53.198;19.646;2023-05-19T12:48:22;101396.54;;;16.90;47.40
70338;BME280;57757;53.198;19.646;2023-05-19T12:50:51;101399.80;;;16.81;47.59
70338;BME280;57757;53.198;19.646;2023-05-19T12:53:20;101397.71;;;16.74;47.61
70338;BME280;57757;53.198;19.646;2023-05-19T12:55:50;101391.83;;;16.70;47.61
70338;BME280;57757;53.198;19.646;2023-05-19T12:58:19;101391.98;;;16.72;47.68
70338;BME280;57757;53.198;19.646;2023-05-19T13:00:49;101384.38;;;16.74;47.65
70338;BME280;57757;53.198;19.646;2023-05-19T13:03:18;101380.42;;;16.82;47.86
70338;BME280;57757;53.198;19.646;2023-05-19T13:05:49;101366.87;;;17.00;47.80
70338;BME280;57757;53.198;19.646;2023-05-19T13:08:21;101347.75;;;17.26;48.02
70338;BME280;57757;53.198;19.646;2023-05-19T13:10:50;101338.70;;;17.50;48.00
70338;BME280;57757;53.198;19.646;2023-05-19T13:13:18;101344.84;;;17.61;47.62